sensor_id;sensor_type;location;lat;lon;timestamp;P1;durP1;ratioP1;P2;durP2;ratioP2
30970;SDS011;17651;52.262;10.498;2024-01-30T10:28:26;18.70;;;9.57;;
30970;SDS011;17651;52.262;10.498;2024-01-30T10:30:39;16.35;;;10.02;;
30970;SDS011;17651;52.262;10.498;2024-01-30T10:32:50;17.70;;;9.80;;
30970;SDS011;17651;52.262;10.498;2024-01-30T10:35:02;16.88;;;10.82;;
30970;SDS011;17651;52.262;10.498;2024-01-30T10:37:13;17.02;;;11.15;;
30970;SDS011;17651;52.262;10.498;2024-01-30T10:39:29;24.30;;;13.18;;
30970;SDS011;17651;52.262;10.498;2024-01-30T10:41:44;16.63;;;11.43;;
30970;SDS011;17651;52.262;10.498;2024-01-30T10:44:02;17.58;;;10.82;;
30970;SDS011;17651;52.262;10.498;2024-01-30T10:46:18;18.67;;;10.05;;
30970;SDS011;17651;52.262;10.498;2024-01-30T10:48:29;17.33;;;9.85;;
30970;SDS011;17651;52.262;10.498;2024-01-30T10:50:41;15.48;;;9.18;;
30970;SDS011;17651;52.262;10.498;2024-01-30T10:52:54;14.82;;;9.48;;
30970;SDS011;17651;52.262;10.498;2024-01-30T10:55:06;17.60;;;9.98;;
30970;SDS011;17651;52.262;10.498;2024-01-30T10:57:17;13.52;;;9.57;;
30970;SDS011;17651;52.262;10.498;2024-01-30T10:59:28;13.40;;;8.88;;
30970;SDS011;17651;52.262;10.498;2024-01-30T11:01:41;11.63;;;8.88;;
30970;SDS011;17651;52.262;10.498;2024-01-30T11:03:52;15.50;;;8.52;;
30970;SDS011;17651;52.262;10.498;2024-01-30T11:06:04;11.93;;;7.57;;
30970;SDS011;17651;52.262;10.498;2024-01-30T11:08:22;11.70;;;7.95;;
30970;SDS011;17651;52.262;10.498;2024-01-30T11:10:33;12.10;;;8.30;;
30970;SDS011;17651;52.262;10.498;2024-01-30T11:12:54;9.90;;;7.25;;
30970;SDS011;17651;52.262;10.498;2024-01-30T11:15:15;12.93;;;8.57;;
30970;SDS011;17651;52.262;10.498;2024-01-30T11:17:39;15.35;;;8.45;;
30970;SDS011;17651;52.262;10.498;2024-01-30T11:19:50;12.35;;;7.53;;
30970;SDS011;17651;52.262;10.498;2024-01-30T11:22:02;10.82;;;8.00;;
30970;SDS011;17651;52.262;10.498;2024-01-30T11:24:14;12.25;;;8.10;;
30970;SDS011;17651;52.262;10.498;2024-01-30T11:26:29;12.30;;;7.75;;
30970;SDS011;17651;52.262;10.498;2024-01-30T11:28:41;12.27;;;7.93;;
30970;SDS011;17651;52.262;10.498;2024-01-30T11:31:02;15.77;;;8.07;;
30970;SDS011;17651;52.262;10.498;2024-01-30T11:33:14;10.18;;;7.63;;
30970;SDS011;17651;52.262;10.498;2024-01-30T11:35:25;12.82;;;7.30;;
30970;SDS011;17651;52.262;10.498;2024-01-30T11:37:36;11.55;;;7.05;;
30970;SDS011;17651;52.262;10.498;2024-01-30T11:39:49;9.95;;;7.05;;
30970;SDS011;17651;52.262;10.498;2024-01-30T11:42:00;10.10;;;7.38;;
30970;SDS011;17651;52.262;10.498;2024-01-30T11:44:13;12.40;;;6.97;;
30970;SDS011;17651;52.262;10.498;2024-01-30T11:46:25;12.32;;;7.30;;
30970;SDS011;17651;52.262;10.498;2024-01-30T11:48:37;10.10;;;7.15;;
30970;SDS011;17651;52.262;10.498;2024-01-30T11:50:48;12.10;;;7.90;;
30970;SDS011;17651;52.262;10.498;2024-01-30T11:53:00;9.63;;;6.80;;
30970;SDS011;17651;52.262;10.498;2024-01-30T11:55:12;12.43;;;7.70;;
30970;SDS011;17651;52.262;10.498;2024-01-30T11:57:23;9.10;;;7.43;;
30970;SDS011;17651;52.262;10.498;2024-01-30T11:59:35;11.95;;;7.78;;
30970;SDS011;17651;52.262;10.498;2024-01-30T12:01:46;12.30;;;9.15;;
30970;SDS011;17651;52.262;10.498;2024-01-30T12:04:00;9.48;;;6.85;;
30970;SDS011;17651;52.262;10.498;2024-01-30T12:06:11;12.45;;;7.00;;
30970;SDS011;17651;52.262;10.498;2024-01-30T12:08:22;11.30;;;7.30;;
30970;SDS011;17651;52.262;10.498;2024-01-30T12:10:33;12.77;;;7.00;;
30970;SDS011;17651;52.262;10.498;2024-01-30T12:12:51;13.05;;;8.05;;
30970;SDS011;17651;52.262;10.498;2024-01-30T12:15:02;13.02;;;7.30;;
30970;SDS011;17651;52.262;10.498;2024-01-30T12:17:22;12.93;;;7.70;;
30970;SDS011;17651;52.262;10.498;2024-01-30T12:19:34;10.55;;;7.13;;
30970;SDS011;17651;52.262;10.498;2024-01-30T12:21:45;10.45;;;6.97;;
30970;SDS011;17651;52.262;10.498;2024-01-30T12:23:56;9.82;;;6.93;;
30970;SDS011;17651;52.262;10.498;2024-01-30T12:26:08;10.70;;;7.38;;
30970;SDS011;17651;52.262;10.498;2024-01-30T12:28:20;10.98;;;7.50;;
30970;SDS011;17651;52.262;10.498;2024-01-30T12:30:31;10.57;;;6.97;;
30970;SDS011;17651;52.262;10.498;2024-01-30T12:32:45;12.85;;;7.00;;
30970;SDS011;17651;52.262;10.498;2024-01-30T12:34:57;11.77;;;7.40;;
30970;SDS011;17651;52.262;10.498;2024-01-30T12:37:08;8.40;;;6.85;;
30970;SDS011;17651;52.262;10.498;2024-01-30T12:39:21;9.45;;;6.75;;
30970;SDS011;17651;52.262;10.498;2024-01-30T12:41:32;14.35;;;6.95;;
30970;SDS011;17651;52.262;10.498;2024-01-30T12:43:43;9.68;;;6.80;;
30970;SDS011;17651;52.262;10.498;2024-01-30T12:45:55;9.55;;;6.93;;
30970;SDS011;17651;52.262;10.498;2024-01-30T12:48:06;9.88;;;6.55;;
30970;SDS011;17651;52.262;10.498;2024-01-30T12:50:17;12.93;;;7.20;;
30970;SDS011;17651;52.262;10.498;2024-01-30T12:52:29;10.57;;;6.70;;
30970;SDS011;17651;52.262;10.498;2024-01-30T12:54:40;11.88;;;6.85;;
30970;SDS011;17651;52.262;10.498;2024-01-30T12:56:51;7.95;;;7.10;;
30970;SDS011;17651;52.262;10.498;2024-01-30T12:59:02;11.27;;;6.95;;
30970;SDS011;17651;52.262;10.498;2024-01-30T13:01:13;10.40;;;7.28;;
30970;SDS011;17651;52.262;10.498;2024-01-30T13:03:24;12.38;;;6.97;;
30970;SDS011;17651;52.262;10.498;2024-01-30T13:05:35;13.07;;;6.75;;
30970;SDS011;17651;52.262;10.498;2024-01-30T13:07:47;11.32;;;6.70;;
30970;SDS011;17651;52.262;10.498;2024-01-30T13:09:58;12.30;;;6.90;;
30970;SDS011;17651;52.262;10.498;2024-01-30T13:12:13;10.10;;;6.57;;
30970;SDS011;17651;52.262;10.498;2024-01-30T13:14:25;9.90;;;7.18;;
30970;SDS011;17651;52.262;10.498;2024-01-30T13:16:36;10.27;;;7.75;;
30970;SDS011;17651;52.262;10.498;2024-01-30T13:18:47;13.20;;;7.43;;
30970;SDS011;17651;52.262;10.498;2024-01-30T13:20:58;12.15;;;7.35;;
30970;SDS011;17651;52.262;10.498;2024-01-30T13:23:09;9.07;;;7.00;;
30970;SDS011;17651;52.262;10.498;2024-01-30T13:25:20;15.07;;;8.55;;
30970;SDS011;17651;52.262;10.498;2024-01-30T13:27:31;12.50;;;6.88;;
30970;SDS011;17651;52.262;10.498;2024-01-30T13:29:42;12.32;;;7.28;;
30970;SDS011;17651;52.262;10.498;2024-01-30T13:31:53;13.18;;;6.65;;
30970;SDS011;17651;52.262;10.498;2024-01-30T13:34:05;10.18;;;7.18;;
30970;SDS011;17651;52.262;10.498;2024-01-30T13:36:17;10.60;;;7.07;;
30970;SDS011;17651;52.262;10.498;2024-01-30T13:38:28;11.23;;;7.10;;
30970;SDS011;17651;52.262;10.498;2024-01-30T13:40:39;10.35;;;7.28;;
30970;SDS011;17651;52.262;10.498;2024-01-30T13:42:50;13.10;;;6.65;;
30970;SDS011;17651;52.262;10.498;2024-01-30T13:45:01;14.05;;;6.70;;
30970;SDS011;17651;52.262;10.498;2024-01-30T13:47:12;12.95;;;7.22;;
30970;SDS011;17651;52.262;10.498;2024-01-30T13:49:23;12.45;;;6.72;;
30970;SDS011;17651;52.262;10.498;2024-01-30T13:51:34;9.82;;;6.40;;
30970;SDS011;17651;52.262;10.498;2024-01-30T13:53:45;10.38;;;6.57;;
30970;SDS011;17651;52.262;10.498;2024-01-30T13:55:56;9.48;;;6.65;;
30970;SDS011;17651;52.262;10.498;2024-01-30T13:58:08;9.85;;;6.43;;
30970;SDS011;17651;52.262;10.498;2024-01-30T14:00:19;10.23;;;6.38;;
30970;SDS011;17651;52.262;10.498;2024-01-30T14:02:32;9.77;;;6.95;;
30970;SDS011;17651;52.262;10.498;2024-01-30T14:04:43;8.18;;;6.60;;
30970;SDS011;17651;52.262;10.498;2024-01-30T14:06:54;11.88;;;7.30;;
30970;SDS011;17651;52.262;10.498;2024-01-30T14:09:05;10.38;;;6.93;;
30970;SDS011;17651;52.262;10.498;2024-01-30T14:11:17;11.57;;;7.20;;
30970;SDS011;17651;52.262;10.498;2024-01-30T14:13:28;11.00;;;6.78;;
30970;SDS011;17651;52.262;10.498;2024-01-30T14:15:39;9.90;;;7.15;;
30970;SDS011;17651;52.262;10.498;2024-01-30T14:17:50;11.57;;;7.20;;
30970;SDS011;17651;52.262;10.498;2024-01-30T14:20:01;10.35;;;7.35;;
30970;SDS011;17651;52.262;10.498;2024-01-30T14:22:14;12.82;;;7.90;;
30970;SDS011;17651;52.262;10.498;2024-01-30T14:24:25;9.32;;;7.78;;
30970;SDS011;17651;52.262;10.498;2024-01-30T14:26:36;8.18;;;6.25;;
30970;SDS011;17651;52.262;10.498;2024-01-30T14:28:47;14.70;;;9.07;;
